createdAt,value
2022-07-28T00:01:16.582Z,97422.65
2022-07-28T00:03:49.223Z,97421.98
2022-07-28T00:06:17.780Z,97423.48
2022-07-28T00:08:46.083Z,97425.73
2022-07-28T00:11:14.674Z,97422.80
2022-07-28T00:13:42.654Z,97423.77
2022-07-28T00:16:10.870Z,97423.52
2022-07-28T00:18:39.522Z,97425.67
2022-07-28T00:21:07.678Z,97427.10
2022-07-28T00:23:39.092Z,97429.08
2022-07-28T00:26:09.484Z,97435.89
2022-07-28T00:28:37.878Z,97432.09
2022-07-28T00:31:10.773Z,97426.89
2022-07-28T00:33:41.988Z,97428.84
2022-07-28T00:36:11.768Z,97426.95
2022-07-28T00:38:44.415Z,97425.96
2022-07-28T00:41:14.031Z,97429.57
2022-07-28T00:43:48.120Z,97431.45
2022-07-28T00:46:19.651Z,97429.03
2022-07-28T00:48:51.144Z,97431.20
2022-07-28T00:51:21.841Z,97433.91
2022-07-28T00:53:51.083Z,97438.70
2022-07-28T00:56:20.144Z,97433.09
2022-07-28T00:58:48.756Z,97424.80
2022-07-28T01:01:20.213Z,97427.29
2022-07-28T01:03:53.846Z,97428.36
2022-07-28T01:06:48.961Z,97424.11
2022-07-28T01:09:45.657Z,97426.77
2022-07-28T01:12:37.954Z,97426.36
2022-07-28T01:15:33.580Z,97434.19
2022-07-28T01:18:09.941Z,97434.18
2022-07-28T01:21:02.453Z,97432.39
2022-07-28T01:23:33.878Z,97425.98
2022-07-28T01:26:14.237Z,97427.84
2022-07-28T01:28:55.303Z,97426.42
2022-07-28T01:31:26.158Z,97421.85
2022-07-28T01:34:05.146Z,97419.98
2022-07-28T01:36:40.105Z,97416.05
2022-07-28T01:39:08.646Z,97415.15
2022-07-28T01:41:39.219Z,97415.62
2022-07-28T01:44:14.003Z,97413.99
2022-07-28T01:46:45.554Z,97414.50
2022-07-28T01:49:15.049Z,97421.55
2022-07-28T01:51:45.059Z,97416.84
2022-07-28T01:54:15.155Z,97416.52
2022-07-28T01:56:44.452Z,97419.87
2022-07-28T01:59:13.176Z,97420.94
2022-07-28T02:01:47.265Z,97423.42
2022-07-28T02:04:19.004Z,97424.52
2022-07-28T02:06:49.946Z,97427.91
2022-07-28T02:09:21.358Z,97430.27
2022-07-28T02:11:52.229Z,97432.09
2022-07-28T02:14:23.839Z,97433.39
2022-07-28T02:16:56.663Z,97440.13
2022-07-28T02:19:26.550Z,97440.68
2022-07-28T02:21:55.800Z,97443.27
2022-07-28T02:24:28.518Z,97443.23
2022-07-28T02:27:04.356Z,97448.36
2022-07-28T02:29:50.846Z,97449.58
2022-07-28T02:32:35.834Z,97451.41
2022-07-28T02:35:48.879Z,97452.23
2022-07-28T02:38:30.538Z,97453.45
2022-07-28T02:41:08.760Z,97452.33
2022-07-28T02:43:49.530Z,97453.17
2022-07-28T02:46:26.217Z,97453.88
2022-07-28T02:49:03.255Z,97456.46
2022-07-28T02:51:34.799Z,97461.84
2022-07-28T02:54:03.682Z,97464.60
2022-07-28T02:56:33.291Z,97466.27
2022-07-28T02:59:02.851Z,97465.66
2022-07-28T03:01:31.908Z,97470.14
2022-07-28T03:04:00.873Z,97468.14
2022-07-28T03:06:29.169Z,97465.95
2022-07-28T03:08:57.925Z,97464.23
2022-07-28T03:11:27.809Z,97467.04
2022-07-28T03:13:55.803Z,97470.41
2022-07-28T03:16:23.745Z,97475.34
2022-07-28T03:18:52.038Z,97477.73
2022-07-28T03:21:19.906Z,97478.07
2022-07-28T03:23:50.522Z,97475.35
2022-07-28T03:26:30.876Z,97476.98
2022-07-28T03:29:00.656Z,97477.97
2022-07-28T03:31:32.079Z,97478.81
2022-07-28T03:34:00.942Z,97483.90
2022-07-28T03:36:40.164Z,97484.20
2022-07-28T03:39:12.158Z,97485.72
2022-07-28T03:41:44.012Z,97488.44
2022-07-28T03:44:15.170Z,97492.26
2022-07-28T03:46:56.527Z,97495.39
2022-07-28T03:49:25.062Z,97496.91
2022-07-28T03:51:53.184Z,97489.98
2022-07-28T03:54:21.307Z,97491.17
2022-07-28T03:56:49.267Z,97493.87
2022-07-28T03:59:18.060Z,97493.26
2022-07-28T04:01:46.356Z,97493.15
2022-07-28T04:04:15.039Z,97499.21
2022-07-28T04:06:43.633Z,97498.08
2022-07-28T04:09:11.645Z,97498.89
2022-07-28T04:11:39.615Z,97502.57
2022-07-28T04:14:11.039Z,97503.86
2022-07-28T04:16:42.798Z,97503.88
2022-07-28T04:19:10.801Z,97503.84
2022-07-28T04:21:38.968Z,97506.99
2022-07-28T04:24:10.034Z,97510.53
2022-07-28T04:26:38.992Z,97506.20
2022-07-28T04:29:07.329Z,97513.28
2022-07-28T04:31:35.212Z,97511.62
2022-07-28T04:34:03.213Z,97512.80
2022-07-28T04:36:31.365Z,97512.05
2022-07-28T04:38:59.608Z,97506.56
2022-07-28T04:41:27.806Z,97503.16
2022-07-28T04:43:55.983Z,97500.65
2022-07-28T04:46:23.980Z,97500.84
2022-07-28T04:48:52.286Z,97501.09
2022-07-28T04:51:20.384Z,97503.94
2022-07-28T04:53:48.714Z,97504.75
2022-07-28T04:56:16.692Z,97506.08
2022-07-28T04:58:44.723Z,97506.27
2022-07-28T05:01:13.703Z,97508.31
2022-07-28T05:03:41.626Z,97510.63
2022-07-28T05:06:09.526Z,97508.07
2022-07-28T05:08:37.499Z,97505.96
2022-07-28T05:11:05.383Z,97506.64
2022-07-28T05:13:34.501Z,97507.29
2022-07-28T05:16:03.587Z,97507.03
2022-07-28T05:18:31.684Z,97508.98
2022-07-28T05:20:59.832Z,97510.08
2022-07-28T05:23:27.992Z,97513.58
2022-07-28T05:25:56.780Z,97509.45
2022-07-28T05:28:24.929Z,97508.73
2022-07-28T05:30:52.863Z,97510.70
2022-07-28T05:33:20.899Z,97509.28
2022-07-28T05:35:59.714Z,97511.44
2022-07-28T05:38:29.017Z,97510.83
2022-07-28T05:40:57.158Z,97508.60
2022-07-28T05:43:25.820Z,97507.53
2022-07-28T05:45:53.779Z,97508.91
2022-07-28T05:48:22.435Z,97509.50
2022-07-28T05:50:51.336Z,97514.16
2022-07-28T05:53:19.672Z,97515.30
2022-07-28T05:55:57.789Z,97518.27
2022-07-28T05:58:30.915Z,97520.40
2022-07-28T06:01:01.352Z,97518.02
2022-07-28T06:03:39.814Z,97520.31
2022-07-28T06:06:14.559Z,97520.98
2022-07-28T06:08:44.280Z,97522.19
2022-07-28T06:11:22.227Z,97521.98
2022-07-28T06:13:52.371Z,97519.27
2022-07-28T06:16:21.390Z,97516.95
2022-07-28T06:18:50.326Z,97516.98
2022-07-28T06:21:18.894Z,97520.67
2022-07-28T06:23:46.886Z,97521.90
2022-07-28T06:26:14.918Z,97520.75
2022-07-28T06:28:42.958Z,97523.48
2022-07-28T06:31:10.937Z,97525.52
2022-07-28T06:33:39.134Z,97526.46
2022-07-28T06:36:07.222Z,97530.08
2022-07-28T06:38:35.489Z,97528.19
2022-07-28T06:41:03.906Z,97527.64
2022-07-28T06:43:38.302Z,97531.41
2022-07-28T06:46:07.767Z,97533.58
2022-07-28T06:48:39.726Z,97528.88
2022-07-28T06:51:07.858Z,97527.89
2022-07-28T06:53:36.236Z,97527.33
2022-07-28T06:56:05.352Z,97522.78
2022-07-28T06:58:34.448Z,97521.93
2022-07-28T07:01:08.103Z,97515.78
2022-07-28T07:03:37.433Z,97518.40
2022-07-28T07:06:05.599Z,97520.62
2022-07-28T07:08:34.038Z,97519.92
2022-07-28T07:11:02.442Z,97522.66
2022-07-28T07:13:30.747Z,97520.40
2022-07-28T07:15:59.029Z,97519.39
2022-07-28T07:18:27.534Z,97519.30
2022-07-28T07:20:57.816Z,97519.95
2022-07-28T07:23:25.942Z,97520.23
2022-07-28T07:25:54.235Z,97519.59
2022-07-28T07:28:22.318Z,97519.00
2022-07-28T07:30:50.557Z,97518.69
2022-07-28T07:33:18.748Z,97515.02
2022-07-28T07:35:47.168Z,97512.05
2022-07-28T07:38:15.556Z,97510.30
2022-07-28T07:40:52.347Z,97513.85
2022-07-28T07:43:20.867Z,97511.13
2022-07-28T07:45:49.076Z,97510.02
2022-07-28T07:48:17.401Z,97508.76
2022-07-28T07:50:48.376Z,97505.83
2022-07-28T07:53:18.661Z,97504.30
2022-07-28T07:55:46.675Z,97505.77
2022-07-28T07:58:14.817Z,97505.90
2022-07-28T08:00:42.999Z,97503.73
2022-07-28T08:03:11.524Z,97507.16
2022-07-28T08:05:42.613Z,97507.66
2022-07-28T08:08:11.043Z,97506.63
2022-07-28T08:10:39.748Z,97507.80
2022-07-28T08:13:08.657Z,97508.66
2022-07-28T08:15:36.730Z,97511.34
2022-07-28T08:18:05.658Z,97512.11
2022-07-28T08:20:33.944Z,97511.17
2022-07-28T08:23:02.478Z,97511.55
2022-07-28T08:25:30.469Z,97506.27
2022-07-28T08:27:58.552Z,97506.84
2022-07-28T08:30:31.976Z,97509.95
2022-07-28T08:33:03.091Z,97510.31
2022-07-28T08:35:33.991Z,97512.39
2022-07-28T08:38:06.528Z,97511.54
2022-07-28T08:40:38.908Z,97513.83
2022-07-28T08:43:22.970Z,97510.30
2022-07-28T08:45:58.171Z,97510.42
2022-07-28T08:48:38.205Z,97510.70
2022-07-28T08:51:11.529Z,97514.13
2022-07-28T08:53:40.831Z,97514.09
2022-07-28T08:56:14.353Z,97513.98
2022-07-28T08:58:43.470Z,97512.29
2022-07-28T09:01:11.791Z,97513.11
2022-07-28T09:03:40.301Z,97514.67
2022-07-28T09:06:08.946Z,97509.13
2022-07-28T09:08:37.371Z,97509.60
2022-07-28T09:11:08.233Z,97509.53
2022-07-28T09:13:36.524Z,97506.39
2022-07-28T09:16:06.894Z,97504.20
2022-07-28T09:18:35.162Z,97505.55
2022-07-28T09:21:03.266Z,97508.45
2022-07-28T09:23:48.885Z,97508.90
2022-07-28T09:26:18.454Z,97508.84
2022-07-28T09:28:56.108Z,97507.86
2022-07-28T09:31:29.203Z,97506.27
2022-07-28T09:34:06.809Z,97502.99
2022-07-28T09:36:40.666Z,97501.45
2022-07-28T09:39:09.399Z,97499.16
2022-07-28T09:41:49.515Z,97502.92
2022-07-28T09:44:19.865Z,97505.66
2022-07-28T09:46:48.166Z,97507.67
2022-07-28T09:49:16.877Z,97509.32
2022-07-28T09:52:02.774Z,97505.98
2022-07-28T09:54:31.023Z,97504.56
2022-07-28T09:56:59.281Z,97505.67
2022-07-28T09:59:41.054Z,97503.37
2022-07-28T10:02:12.994Z,97503.67
2022-07-28T10:04:42.139Z,97500.80
2022-07-28T10:07:17.413Z,97495.13
2022-07-28T10:10:04.424Z,97493.90
2022-07-28T10:12:36.808Z,97497.71
2022-07-28T10:15:36.574Z,97495.92
2022-07-28T10:18:05.948Z,97497.08
2022-07-28T10:20:35.420Z,97490.44
2022-07-28T10:23:06.120Z,97488.88
2022-07-28T10:25:35.727Z,97490.98
2022-07-28T10:28:04.453Z,97487.67
2022-07-28T10:30:40.345Z,97481.52
2022-07-28T10:33:15.947Z,97475.91
2022-07-28T10:35:55.476Z,97477.78
2022-07-28T10:38:30.442Z,97477.13
2022-07-28T10:41:01.875Z,97468.30
2022-07-28T10:43:32.136Z,97466.92
2022-07-28T10:46:06.067Z,97467.50
2022-07-28T10:48:38.647Z,97469.16
2022-07-28T10:51:07.635Z,97462.38
2022-07-28T10:53:43.643Z,97461.06
2022-07-28T10:56:38.979Z,97459.45
2022-07-28T10:59:44.789Z,97464.27
2022-07-28T11:02:32.785Z,97460.80
2022-07-28T11:05:03.764Z,97458.69
2022-07-28T11:07:39.940Z,97457.24
2022-07-28T11:10:18.680Z,97456.35
2022-07-28T11:12:55.077Z,97456.13
2022-07-28T11:15:32.594Z,97450.83
2022-07-28T11:18:04.362Z,97448.41
2022-07-28T11:20:51.429Z,97447.33
2022-07-28T11:23:39.797Z,97443.73
2022-07-28T11:26:21.028Z,97439.66
2022-07-28T11:28:59.145Z,97435.70
2022-07-28T11:31:45.993Z,97432.41
2022-07-28T11:34:19.518Z,97432.87
2022-07-28T11:37:05.762Z,97436.81
2022-07-28T11:39:43.260Z,97436.65
2022-07-28T11:42:31.195Z,97433.27
2022-07-28T11:45:23.388Z,97427.95
2022-07-28T11:48:17.518Z,97430.44
2022-07-28T11:51:04.119Z,97428.88
2022-07-28T11:53:53.175Z,97429.03
2022-07-28T11:56:29.421Z,97426.88
2022-07-28T11:59:00.480Z,97426.59
2022-07-28T12:01:31.737Z,97423.27
2022-07-28T12:04:01.414Z,97423.08
2022-07-28T12:06:37.659Z,97420.84
2022-07-28T12:09:08.510Z,97419.77
2022-07-28T12:11:41.322Z,97420.61
2022-07-28T12:14:15.401Z,97423.36
2022-07-28T12:16:45.992Z,97420.84
2022-07-28T12:19:19.270Z,97421.17
2022-07-28T12:21:52.841Z,97418.89
2022-07-28T12:24:45.125Z,97413.20
2022-07-28T12:27:16.615Z,97410.14
2022-07-28T12:29:59.918Z,97409.19
2022-07-28T12:32:35.574Z,97410.15
2022-07-28T12:35:05.563Z,97409.42
2022-07-28T12:37:33.653Z,97409.08
2022-07-28T12:40:02.765Z,97404.45
2022-07-28T12:42:32.345Z,97401.61
2022-07-28T12:45:04.825Z,97399.77
2022-07-28T12:47:33.539Z,97395.70
2022-07-28T12:50:14.084Z,97394.41
2022-07-28T12:52:44.257Z,97392.98
2022-07-28T12:55:24.955Z,97389.42
2022-07-28T12:57:53.795Z,97390.94
2022-07-28T13:00:27.265Z,97388.41
2022-07-28T13:02:58.862Z,97384.65
2022-07-28T13:05:57.290Z,97389.50
2022-07-28T13:08:27.406Z,97387.35
2022-07-28T13:10:58.995Z,97387.69
2022-07-28T13:13:27.888Z,97391.20
2022-07-28T13:16:16.634Z,97389.46
2022-07-28T13:18:48.015Z,97392.40
2022-07-28T13:21:16.848Z,97390.14
2022-07-28T13:23:45.093Z,97387.86
2022-07-28T13:26:13.335Z,97388.67
2022-07-28T13:28:41.590Z,97385.20
2022-07-28T13:31:09.697Z,97388.75
2022-07-28T13:33:38.115Z,97389.23
2022-07-28T13:36:06.591Z,97395.27
2022-07-28T13:38:34.728Z,97395.73
2022-07-28T13:41:03.204Z,97394.52
2022-07-28T13:43:36.348Z,97395.60
2022-07-28T13:46:05.514Z,97393.62
2022-07-28T13:48:36.189Z,97392.51
2022-07-28T13:51:04.337Z,97394.43
2022-07-28T13:53:33.846Z,97394.59
2022-07-28T13:56:02.005Z,97394.30
2022-07-28T13:58:30.188Z,97392.13
2022-07-28T14:00:59.599Z,97395.85
2022-07-28T14:03:29.008Z,97392.21
2022-07-28T14:06:17.053Z,97390.46
2022-07-28T14:08:45.261Z,97390.95
2022-07-28T14:11:16.289Z,97393.45
2022-07-28T14:13:44.485Z,97397.21
2022-07-28T14:16:14.483Z,97402.90
2022-07-28T14:18:42.866Z,97403.89
2022-07-28T14:21:10.894Z,97403.86
2022-07-28T14:23:39.005Z,97406.39
2022-07-28T14:26:34.562Z,97408.11
2022-07-28T14:28:56.016Z,97407.95
2022-07-28T14:31:24.292Z,97409.58
2022-07-28T14:33:54.915Z,97414.42
2022-07-28T14:36:23.225Z,97414.86
2022-07-28T14:38:54.153Z,97420.80
2022-07-28T14:41:23.703Z,97421.89
2022-07-28T14:43:52.875Z,97422.21
2022-07-28T14:46:22.099Z,97425.41
2022-07-28T14:48:58.216Z,97429.77
2022-07-28T14:51:26.403Z,97440.28
2022-07-28T14:53:57.199Z,97444.48
2022-07-28T14:56:25.234Z,97447.15
2022-07-28T14:58:53.390Z,97450.67
2022-07-28T15:01:21.709Z,97451.91
2022-07-28T15:03:49.686Z,97457.41
2022-07-28T15:06:17.817Z,97453.34
2022-07-28T15:08:46.140Z,97453.61
2022-07-28T15:11:14.427Z,97453.41
2022-07-28T15:13:42.507Z,97454.96
2022-07-28T15:16:10.531Z,97457.71
2022-07-28T15:18:38.795Z,97457.02
2022-07-28T15:21:08.762Z,97459.16
2022-07-28T15:23:36.844Z,97462.83
2022-07-28T15:26:04.957Z,97466.98
2022-07-28T15:28:33.603Z,97462.20
2022-07-28T15:31:01.831Z,97469.55
2022-07-28T15:33:30.443Z,97470.22
2022-07-28T15:36:00.622Z,97475.96
2022-07-28T15:38:29.592Z,97476.40
2022-07-28T15:41:00.448Z,97476.24
2022-07-28T15:43:29.755Z,97482.22
2022-07-28T15:45:57.816Z,97484.84
2022-07-28T15:48:25.976Z,97484.50
2022-07-28T15:50:53.998Z,97490.39
2022-07-28T15:53:22.740Z,97492.88
2022-07-28T15:55:51.868Z,97494.29
2022-07-28T15:58:22.013Z,97489.73
2022-07-28T16:00:50.629Z,97491.04
2022-07-28T16:03:19.344Z,97486.58
2022-07-28T16:05:49.797Z,97487.64
2022-07-28T16:08:22.728Z,97483.73
2022-07-28T16:10:54.163Z,97480.27
2022-07-28T16:13:35.725Z,97477.16
2022-07-28T16:16:11.116Z,97477.98
2022-07-28T16:18:42.628Z,97476.56
2022-07-28T16:21:11.247Z,97483.59
2022-07-28T16:23:39.341Z,97484.85
2022-07-28T16:26:09.474Z,97484.52
2022-07-28T16:28:37.906Z,97485.65
2022-07-28T16:31:06.454Z,97485.25
2022-07-28T16:33:34.616Z,97488.59
2022-07-28T16:36:02.828Z,97493.02
2022-07-28T16:38:30.961Z,97499.34
2022-07-28T16:40:59.418Z,97499.17
2022-07-28T16:43:27.531Z,97499.30
2022-07-28T16:45:57.571Z,97499.88
2022-07-28T16:48:25.907Z,97499.71
2022-07-28T16:50:56.988Z,97502.67
2022-07-28T16:53:24.947Z,97501.22
2022-07-28T16:55:52.924Z,97502.14
2022-07-28T16:58:22.505Z,97499.84
2022-07-28T17:00:50.912Z,97506.00
2022-07-28T17:03:18.924Z,97511.40
2022-07-28T17:05:48.187Z,97509.69
2022-07-28T17:08:16.208Z,97511.88
2022-07-28T17:10:45.723Z,97511.36
2022-07-28T17:13:15.592Z,97510.39
2022-07-28T17:15:43.713Z,97509.66
2022-07-28T17:18:12.336Z,97511.10
2022-07-28T17:20:41.495Z,97513.54
2022-07-28T17:23:10.101Z,97513.33
2022-07-28T17:26:20.854Z,97513.81
2022-07-28T17:28:27.334Z,97522.78
2022-07-28T17:30:55.464Z,97529.79
2022-07-28T17:33:24.994Z,97534.79
2022-07-28T17:35:57.896Z,97536.05
2022-07-28T17:38:32.508Z,97544.48
2022-07-28T17:41:04.271Z,97559.49
2022-07-28T17:43:33.020Z,97582.89
2022-07-28T17:46:01.324Z,97614.08
2022-07-28T17:48:31.239Z,97630.45
2022-07-28T17:50:59.685Z,97627.42
2022-07-28T17:53:27.831Z,97623.73
2022-07-28T17:56:01.134Z,97618.75
2022-07-28T17:58:32.108Z,97619.95
2022-07-28T18:01:09.804Z,97616.89
2022-07-28T18:03:57.744Z,97613.98
2022-07-28T18:06:30.781Z,97618.05
2022-07-28T18:09:05.484Z,97618.50
2022-07-28T18:11:56.039Z,97621.40
2022-07-28T18:14:30.482Z,97627.33
2022-07-28T18:17:01.336Z,97623.41
2022-07-28T18:19:29.970Z,97624.13
2022-07-28T18:21:58.568Z,97626.55
2022-07-28T18:24:27.477Z,97628.98
2022-07-28T18:26:57.550Z,97630.89
2022-07-28T18:29:26.227Z,97632.69
2022-07-28T18:32:09.596Z,97635.27
2022-07-28T18:34:40.479Z,97635.26
2022-07-28T18:37:08.510Z,97634.52
2022-07-28T18:39:36.428Z,97633.73
2022-07-28T18:42:04.759Z,97636.80
2022-07-28T18:44:32.816Z,97634.59
2022-07-28T18:47:01.956Z,97635.04
2022-07-28T18:49:37.211Z,97636.10
2022-07-28T18:52:07.068Z,97639.95
2022-07-28T18:54:35.134Z,97643.84
2022-07-28T18:57:03.176Z,97645.59
2022-07-28T18:59:31.099Z,97649.84
2022-07-28T19:01:59.188Z,97653.73
2022-07-28T19:04:27.353Z,97654.64
2022-07-28T19:06:56.101Z,97654.59
2022-07-28T19:09:24.294Z,97649.85
2022-07-28T19:11:52.419Z,97648.70
2022-07-28T19:14:20.824Z,97649.16
2022-07-28T19:16:49.516Z,97650.48
2022-07-28T19:19:17.454Z,97650.27
2022-07-28T19:21:45.544Z,97649.98
2022-07-28T19:24:15.244Z,97649.15
2022-07-28T19:26:46.348Z,97651.49
2022-07-28T19:29:14.375Z,97649.17
2022-07-28T19:31:42.983Z,97647.86
2022-07-28T19:34:10.955Z,97644.34
2022-07-28T19:36:41.739Z,97648.48
2022-07-28T19:39:09.886Z,97649.70
2022-07-28T19:41:38.481Z,97652.92
2022-07-28T19:44:06.672Z,97654.66
2022-07-28T19:46:34.757Z,97654.70
2022-07-28T19:49:03.185Z,97658.12
2022-07-28T19:51:31.278Z,97658.64
2022-07-28T19:53:59.706Z,97661.65
2022-07-28T19:56:31.167Z,97665.13
2022-07-28T19:58:59.902Z,97667.92
2022-07-28T20:01:28.239Z,97670.13
2022-07-28T20:04:03.994Z,97674.80
2022-07-28T20:06:33.425Z,97679.17
2022-07-28T20:09:02.525Z,97679.70
2022-07-28T20:11:33.234Z,97682.15
2022-07-28T20:14:01.482Z,97685.34
2022-07-28T20:16:29.958Z,97689.45
2022-07-28T20:18:58.024Z,97691.33
2022-07-28T20:21:26.645Z,97690.61
2022-07-28T20:23:57.199Z,97692.06
2022-07-28T20:26:26.846Z,97697.91
2022-07-28T20:28:58.434Z,97700.65
2022-07-28T20:31:26.771Z,97701.72
2022-07-28T20:33:56.638Z,97701.51
2022-07-28T20:36:29.443Z,97701.98
2022-07-28T20:38:57.697Z,97700.24
2022-07-28T20:41:25.837Z,97704.10
2022-07-28T20:44:18.548Z,97705.44
2022-07-28T20:46:42.214Z,97710.33
2022-07-28T20:49:10.229Z,97707.39
2022-07-28T20:51:38.192Z,97703.23
2022-07-28T20:54:06.123Z,97704.08
2022-07-28T20:56:34.277Z,97702.48
2022-07-28T20:59:06.734Z,97703.98
2022-07-28T21:01:35.219Z,97705.89
2022-07-28T21:04:03.433Z,97705.91
2022-07-28T21:06:31.993Z,97701.49
2022-07-28T21:09:02.103Z,97697.10
2022-07-28T21:11:35.162Z,97700.02
2022-07-28T21:14:05.038Z,97699.52
2022-07-28T21:16:32.945Z,97695.65
2022-07-28T21:19:02.197Z,97693.81
2022-07-28T21:21:30.726Z,97689.42
2022-07-28T21:23:58.679Z,97686.83
2022-07-28T21:26:26.576Z,97687.27
2022-07-28T21:29:12.925Z,97687.33
2022-07-28T21:32:03.628Z,97685.65
2022-07-28T21:34:31.141Z,97687.65
2022-07-28T21:36:59.601Z,97690.59
2022-07-28T21:39:27.704Z,97691.89
2022-07-28T21:41:55.666Z,97696.34
2022-07-28T21:44:23.660Z,97695.89
2022-07-28T21:46:52.174Z,97696.73
2022-07-28T21:49:20.199Z,97697.65
2022-07-28T21:51:48.152Z,97696.34
2022-07-28T21:54:16.562Z,97695.73
2022-07-28T21:56:47.305Z,97698.02
2022-07-28T21:59:15.231Z,97701.91
2022-07-28T22:01:43.336Z,97702.84
2022-07-28T22:04:11.484Z,97699.20
2022-07-28T22:06:39.412Z,97703.06
2022-07-28T22:09:07.367Z,97700.42
2022-07-28T22:11:35.360Z,97698.94
2022-07-28T22:14:03.383Z,97699.13
2022-07-28T22:16:31.373Z,97700.14
2022-07-28T22:18:59.343Z,97702.86
2022-07-28T22:21:27.349Z,97704.99
2022-07-28T22:23:55.366Z,97708.10
2022-07-28T22:26:23.483Z,97714.40
2022-07-28T22:28:51.459Z,97721.13
2022-07-28T22:31:19.549Z,97723.64
2022-07-28T22:33:47.674Z,97721.42
2022-07-28T22:36:15.682Z,97727.11
2022-07-28T22:38:43.653Z,97731.24
2022-07-28T22:41:11.580Z,97733.81
2022-07-28T22:43:39.525Z,97741.55
2022-07-28T22:46:10.264Z,97744.69
2022-07-28T22:48:38.464Z,97749.80
2022-07-28T22:51:11.260Z,97751.44
2022-07-28T22:53:39.736Z,97745.40
2022-07-28T22:58:56.521Z,97740.08
2022-07-28T23:01:24.700Z,97740.94
2022-07-28T23:03:53.592Z,97737.47
2022-07-28T23:06:22.364Z,97738.63
2022-07-28T23:08:50.424Z,97746.05
2022-07-28T23:11:18.556Z,97747.38
2022-07-28T23:13:46.662Z,97747.02
2022-07-28T23:16:17.165Z,97750.14
2022-07-28T23:18:45.194Z,97751.24
2022-07-28T23:21:13.274Z,97750.70
2022-07-28T23:23:41.285Z,97751.64
2022-07-28T23:26:09.494Z,97751.30
2022-07-28T23:28:37.537Z,97752.32
2022-07-28T23:31:05.723Z,97758.29
2022-07-28T23:33:56.275Z,97752.84
2022-07-28T23:36:26.433Z,97761.89
2022-07-28T23:38:57.265Z,97761.67
2022-07-28T23:41:26.930Z,97762.97
2022-07-28T23:43:55.048Z,97763.55
2022-07-28T23:46:23.696Z,97764.19
2022-07-28T23:48:52.009Z,97761.65
2022-07-28T23:51:21.407Z,97760.64
2022-07-28T23:53:55.924Z,97757.85
2022-07-28T23:56:24.383Z,97751.14
2022-07-28T23:58:52.481Z,97747.39
